Yuma, Arizona
Current Conditions -  °F | °C
As of 5:57 AM on Monday 22 Dec 2014 (Local Time) from KNYL Reporting Station
Broken Clouds Broken Clouds  
Wind Chill: 49°   Ceiling: 25000
Heat Index: 49°   Visibility: 10mi
Dew Point: 41°   Wind: 0mph
Humidity: 74%   Direction: NA
Pressure: 30.01"   Gusts: NA
Location:  32.68°N, 114.62°W
Report Text: KNYL 221257Z 00000KT 10SM BKN250 09/05 A3001 RMK AO2 SLP161 T00940050 $
Loading
Personal Weather Stations






























Interactive Weather Map New forecast layout! Learn more

10-Day Weather Forecast

Advertisements
Track Severe Weather on mobile